Time;durP1;ratioP1;P1;durP2;ratioP2;P2;SDS_P1;SDS_P2;PMS_P1;PMS_P2;Temp;Humidity;BMP_temperature;BMP_pressure;BME280_temperature;BME280_humidity;BME280_pressure;Samples;Min_cycle;Max_cycle;Signal;HPM_P1;HPM_P2
2022/03/13 00:00:10;;;;;;;;;;;;;;;2.43;33.95;101122.56;4402778;32;19981;-73
2022/03/13 00:02:40;;;;;;;;;;;;;;;2.38;33.87;101113.69;4415859;32;19990;-71
2022/03/13 00:05:09;;;;;;;;;;;;;;;2.41;34.28;101118.13;4416568;32;19994;-74
2022/03/13 00:07:37;;;;;;;;;;;;;;;2.24;34.70;101110.19;4402536;32;20374;-71
2022/03/13 00:10:05;;;;;;;;;;;;;;;2.37;34.31;101117.03;4415247;32;20562;-71
2022/03/13 00:12:32;;;;;;;;;;;;;;;2.19;34.22;101116.62;4389784;32;20031;-72
2022/03/13 00:15:05;;;;;;;;;;;;;;;2.20;34.76;101110.75;4428404;32;20043;-72
2022/03/13 00:17:32;;;;;;;;;;;;;;;1.99;34.55;101116.91;4421346;32;20113;-72
2022/03/13 00:20:02;;;;;;;;;;;;;;;2.08;34.89;101115.00;4417609;32;20000;-72
2022/03/13 00:22:29;;;;;;;;;;;;;;;2.03;35.22;101108.69;4417393;32;20505;-72
2022/03/13 00:24:58;;;;;;;;;;;;;;;2.07;34.43;101100.44;4417813;32;20413;-72
2022/03/13 00:27:25;;;;;;;;;;;;;;;2.10;34.83;101105.75;4417025;32;20003;-71
2022/03/13 00:29:52;;;;;;;;;;;;;;;2.12;34.67;101105.88;4417602;32;20835;-71
2022/03/13 00:32:20;;;;;;;;;;;;;;;2.12;34.56;101109.31;4431967;32;20031;-71
2022/03/13 00:34:46;;;;;;;;;;;;;;;1.88;35.26;101103.38;4431644;32;20319;-71
2022/03/13 00:37:13;;;;;;;;;;;;;;;2.07;35.28;101105.56;4417378;32;20279;-74
2022/03/13 00:39:41;;;;;;;;;;;;;;;2.04;35.10;101096.03;4417979;32;20008;-74
2022/03/13 00:42:08;;;;;;;;;;;;;;;1.89;35.17;101104.28;4416944;32;19977;-72
2022/03/13 00:44:35;;;;;;;;;;;;;;;1.76;35.47;101098.28;4430698;32;19981;-74
2022/03/13 00:47:05;;;;;;;;;;;;;;;2.06;34.25;101101.22;4431036;32;19985;-72
2022/03/13 00:49:32;;;;;;;;;;;;;;;2.06;34.18;101103.78;4404936;32;20027;-72
2022/03/13 00:52:00;;;;;;;;;;;;;;;2.17;33.80;101102.88;4414839;32;20319;-72
2022/03/13 00:54:28;;;;;;;;;;;;;;;2.42;33.16;101104.56;4418264;32;19982;-72
2022/03/13 00:56:55;;;;;;;;;;;;;;;2.28;33.99;101107.06;4431662;32;19985;-74
2022/03/13 00:59:22;;;;;;;;;;;;;;;2.00;35.34;101103.34;4416966;32;20052;-72
2022/03/13 01:01:49;;;;;;;;;;;;;;;1.93;34.86;101096.94;4431465;32;19969;-72
2022/03/13 01:04:16;;;;;;;;;;;;;;;2.00;34.01;101093.12;4431623;32;20001;-72
2022/03/13 01:06:43;;;;;;;;;;;;;;;2.06;33.75;101093.56;4416730;32;19977;-71
2022/03/13 01:09:10;;;;;;;;;;;;;;;2.33;33.06;101086.97;4417443;32;19986;-73
2022/03/13 01:11:37;;;;;;;;;;;;;;;1.71;35.13;101084.31;4431091;32;19973;-75
2022/03/13 01:14:04;;;;;;;;;;;;;;;1.98;34.61;101087.03;4416981;32;20001;-74
2022/03/13 01:16:35;;;;;;;;;;;;;;;1.89;35.30;101083.84;4404282;32;20927;-72
2022/03/13 01:19:03;;;;;;;;;;;;;;;1.93;34.96;101080.72;4404160;32;20286;-72
2022/03/13 01:21:30;;;;;;;;;;;;;;;2.21;33.82;101079.31;4417180;32;20014;-75
2022/03/13 01:23:57;;;;;;;;;;;;;;;2.02;34.21;101081.37;4430291;32;19997;-73
2022/03/13 01:26:24;;;;;;;;;;;;;;;1.95;34.81;101074.06;4436813;32;20059;-73
2022/03/13 01:28:51;;;;;;;;;;;;;;;1.93;34.95;101085.84;4445009;32;19984;-73
2022/03/13 01:31:21;;;;;;;;;;;;;;;1.77;34.96;101084.75;4446556;32;20366;-72
2022/03/13 01:33:48;;;;;;;;;;;;;;;1.90;34.67;101083.06;4425596;32;20003;-72
2022/03/13 01:36:15;;;;;;;;;;;;;;;1.72;35.19;101083.50;4429630;32;19996;-73
2022/03/13 01:38:42;;;;;;;;;;;;;;;1.52;36.14;101081.22;4434378;32;19977;-74
2022/03/13 01:41:09;;;;;;;;;;;;;;;1.58;36.19;101081.66;4416748;32;20022;-74
2022/03/13 01:43:37;;;;;;;;;;;;;;;1.44;36.11;101074.69;4437995;32;20012;-73
2022/03/13 01:46:04;;;;;;;;;;;;;;;1.46;35.77;101078.22;4415717;32;20096;-74
2022/03/13 01:48:38;;;;;;;;;;;;;;;1.58;34.96;101071.44;4418910;32;19989;-71
2022/03/13 01:51:11;;;;;;;;;;;;;;;1.75;35.55;101073.53;4433100;32;19977;-75
2022/03/13 01:53:38;;;;;;;;;;;;;;;1.67;34.97;101067.00;4446627;32;20658;-72
2022/03/13 01:56:07;;;;;;;;;;;;;;;1.93;34.45;101062.84;4421035;32;20435;-72
2022/03/13 01:58:35;;;;;;;;;;;;;;;1.55;35.63;101068.69;4421663;32;19986;-73
2022/03/13 02:01:01;;;;;;;;;;;;;;;1.59;35.22;101066.44;4431196;32;19978;-74
2022/03/13 02:03:29;;;;;;;;;;;;;;;1.74;34.61;101069.22;4403526;32;20390;-75
2022/03/13 02:05:56;;;;;;;;;;;;;;;1.74;35.29;101064.09;4435153;32;19988;-74
2022/03/13 02:08:22;;;;;;;;;;;;;;;1.65;35.20;101060.91;4441788;32;19981;-74
2022/03/13 02:10:50;;;;;;;;;;;;;;;1.95;34.72;101048.53;4419383;32;19973;-72
2022/03/13 02:13:18;;;;;;;;;;;;;;;1.62;35.32;101058.13;4432253;32;20299;-72
2022/03/13 02:15:45;;;;;;;;;;;;;;;1.44;35.95;101061.94;4423753;32;20039;-74
2022/03/13 02:18:12;;;;;;;;;;;;;;;1.02;36.68;101053.81;4418045;32;19997;-73
2022/03/13 02:20:40;;;;;;;;;;;;;;;1.37;35.89;101045.28;4439571;32;20393;-75
2022/03/13 02:23:14;;;;;;;;;;;;;;;1.41;35.97;101048.97;4446481;32;20000;-72
2022/03/13 02:25:41;;;;;;;;;;;;;;;1.50;35.66;101054.69;4446137;32;20000;-75
2022/03/13 02:28:11;;;;;;;;;;;;;;;1.29;36.10;101052.38;4427267;32;20327;-73
2022/03/13 02:30:38;;;;;;;;;;;;;;;1.28;36.40;101044.63;4435560;32;19973;-74
2022/03/13 02:33:05;;;;;;;;;;;;;;;1.15;36.67;101053.06;4415794;32;19977;-72
2022/03/13 02:35:32;;;;;;;;;;;;;;;0.91;37.30;101053.00;4430431;32;20387;-72
2022/03/13 02:37:59;;;;;;;;;;;;;;;1.17;36.10;101049.81;4430906;32;20008;-72
2022/03/13 02:40:26;;;;;;;;;;;;;;;1.24;35.71;101048.59;4430706;32;19973;-72
2022/03/13 02:42:53;;;;;;;;;;;;;;;1.24;36.38;101048.59;4429105;32;19993;-72
2022/03/13 02:45:38;;;;;;;;;;;;;;;1.39;36.26;101043.72;4403694;32;19977;-73
2022/03/13 02:48:07;;;;;;;;;;;;;;;1.27;36.00;101040.28;4425301;32;19977;-75
2022/03/13 02:50:34;;;;;;;;;;;;;;;1.26;36.19;101036.84;4428235;32;19981;-74
2022/03/13 02:53:01;;;;;;;;;;;;;;;1.47;35.27;101041.72;4430807;32;19986;-71
2022/03/13 02:55:28;;;;;;;;;;;;;;;1.36;35.28;101039.28;4416575;32;20346;-75
2022/03/13 02:57:55;;;;;;;;;;;;;;;1.54;34.82;101036.28;4112317;32;10000514;-72
2022/03/13 03:00:23;;;;;;;;;;;;;;;1.47;35.47;101041.72;4430724;32;19981;-72
2022/03/13 03:02:51;;;;;;;;;;;;;;;1.69;35.13;101045.03;4416682;32;19988;-75
2022/03/13 03:05:17;;;;;;;;;;;;;;;1.69;34.31;101039.94;4430049;32;20064;-74
2022/03/13 03:07:44;;;;;;;;;;;;;;;1.55;35.02;101035.50;4416379;32;20019;-72
2022/03/13 03:10:13;;;;;;;;;;;;;;;1.60;34.60;101035.06;4416080;32;20354;-73
2022/03/13 03:12:40;;;;;;;;;;;;;;;1.70;34.07;101031.50;4430552;32;19990;-72
2022/03/13 03:15:06;;;;;;;;;;;;;;;1.37;35.29;101038.53;4428659;32;19989;-72
2022/03/13 03:17:33;;;;;;;;;;;;;;;1.47;35.44;101036.63;4430786;32;20000;-72
2022/03/13 03:20:00;;;;;;;;;;;;;;;1.35;35.61;101032.41;4430541;32;20030;-74
2022/03/13 03:22:27;;;;;;;;;;;;;;;1.26;35.59;101034.31;4415498;32;20007;-73
2022/03/13 03:24:54;;;;;;;;;;;;;;;1.31;35.76;101030.44;4417945;32;20009;-74
2022/03/13 03:27:21;;;;;;;;;;;;;;;0.98;36.93;101033.06;4431375;32;20042;-75
2022/03/13 03:29:48;;;;;;;;;;;;;;;0.99;37.14;101027.19;4445388;32;19989;-75
2022/03/13 03:32:15;;;;;;;;;;;;;;;1.36;36.23;101018.88;4443790;32;19985;-74
2022/03/13 03:34:42;;;;;;;;;;;;;;;0.93;36.87;101022.56;4414102;32;19989;-72
2022/03/13 03:37:10;;;;;;;;;;;;;;;0.80;37.06;101028.41;4443976;32;20488;-72
2022/03/13 03:39:38;;;;;;;;;;;;;;;1.10;36.06;101019.56;4445843;32;19989;-71
2022/03/13 03:42:05;;;;;;;;;;;;;;;1.04;37.16;101024.22;4431204;32;19988;-74
2022/03/13 03:44:31;;;;;;;;;;;;;;;0.83;37.45;101017.53;4418146;32;20322;-74
2022/03/13 03:46:59;;;;;;;;;;;;;;;1.08;36.53;101020.22;4430911;32;19992;-75
2022/03/13 03:49:26;;;;;;;;;;;;;;;1.22;35.52;101009.38;4431623;32;19977;-73
2022/03/13 03:51:52;;;;;;;;;;;;;;;0.97;36.68;101013.47;4445430;32;19985;-71
2022/03/13 03:54:19;;;;;;;;;;;;;;;0.80;37.03;101013.13;4422552;32;20011;-75
2022/03/13 03:56:46;;;;;;;;;;;;;;;1.03;36.38;101007.16;4415181;32;19977;-74
2022/03/13 03:59:13;;;;;;;;;;;;;;;1.21;36.18;101006.69;4429781;32;19981;-73
2022/03/13 04:01:41;;;;;;;;;;;;;;;1.06;36.06;101011.59;4429411;32;20394;-72
2022/03/13 04:04:15;;;;;;;;;;;;;;;1.33;35.60;101013.56;4403446;32;20008;-74
2022/03/13 04:06:42;;;;;;;;;;;;;;;1.12;36.58;101017.13;4429973;32;19997;-75
2022/03/13 04:09:09;;;;;;;;;;;;;;;1.10;36.11;101016.13;4429716;32;19986;-75
2022/03/13 04:11:37;;;;;;;;;;;;;;;1.30;35.97;101013.34;4415214;32;20326;-72
2022/03/13 04:14:04;;;;;;;;;;;;;;;1.05;36.70;101012.34;4413632;32;20037;-75
2022/03/13 04:16:31;;;;;;;;;;;;;;;0.93;37.19;101010.69;4415565;32;20309;-74
2022/03/13 04:18:58;;;;;;;;;;;;;;;0.80;37.50;101012.19;4438020;32;19986;-73
2022/03/13 04:21:25;;;;;;;;;;;;;;;1.02;36.44;101001.91;4441991;32;19993;-74
2022/03/13 04:23:53;;;;;;;;;;;;;;;0.95;37.39;101002.25;4444874;32;20334;-74
2022/03/13 04:26:22;;;;;;;;;;;;;;;1.04;36.61;101008.03;4444580;32;20110;-74
2022/03/13 04:28:49;;;;;;;;;;;;;;;0.95;37.38;101002.25;4426607;32;20035;-72
2022/03/13 04:31:16;;;;;;;;;;;;;;;0.85;37.31;101011.78;4433224;32;19974;-72
2022/03/13 04:33:46;;;;;;;;;;;;;;;0.65;37.55;101006.87;4433149;32;20035;-72
2022/03/13 04:36:13;;;;;;;;;;;;;;;0.85;36.55;101006.69;4431979;32;19989;-73
2022/03/13 04:38:40;;;;;;;;;;;;;;;0.95;36.77;100997.16;4446739;32;19996;-72
2022/03/13 04:41:07;;;;;;;;;;;;;;;0.95;36.95;100999.72;4447081;32;20026;-73
2022/03/13 04:43:35;;;;;;;;;;;;;;;0.74;37.52;100992.28;4420044;32;19981;-74
2022/03/13 04:46:01;;;;;;;;;;;;;;;0.57;37.64;100990.13;4444614;32;20455;-73
2022/03/13 04:48:29;;;;;;;;;;;;;;;0.90;36.51;100992.63;4446597;32;19989;-72
2022/03/13 04:50:55;;;;;;;;;;;;;;;0.76;37.27;100988.16;4432826;32;20026;-73
2022/03/13 04:53:22;;;;;;;;;;;;;;;1.04;36.66;100997.84;4447108;32;19989;-74
2022/03/13 04:55:49;;;;;;;;;;;;;;;0.99;36.31;100994.03;4446780;32;20019;-73
2022/03/13 04:58:16;;;;;;;;;;;;;;;1.23;35.88;100983.06;4446734;32;19997;-71
2022/03/13 05:00:47;;;;;;;;;;;;;;;1.01;37.02;100982.31;4433810;32;20029;-72
2022/03/13 05:03:14;;;;;;;;;;;;;;;1.00;36.87;100985.66;4432321;32;19989;-75
2022/03/13 05:05:41;;;;;;;;;;;;;;;0.78;37.48;100989.16;4446966;32;20076;-71
2022/03/13 05:08:15;;;;;;;;;;;;;;;0.99;36.58;100983.84;4446930;32;20038;-71
2022/03/13 05:10:43;;;;;;;;;;;;;;;0.99;37.66;100994.03;4447084;32;19986;-74
2022/03/13 05:13:14;;;;;;;;;;;;;;;1.11;36.94;100992.38;4446181;32;19989;-71
2022/03/13 05:15:45;;;;;;;;;;;;;;;0.76;37.43;100997.47;4420509;32;19989;-76
2022/03/13 05:18:12;;;;;;;;;;;;;;;0.59;37.97;101001.31;4432894;32;19977;-71
2022/03/13 05:20:39;;;;;;;;;;;;;;;0.72;37.44;101004.00;4432142;32;20015;-74
2022/03/13 05:23:07;;;;;;;;;;;;;;;0.97;36.93;101013.47;4446843;32;20326;-73
2022/03/13 05:25:35;;;;;;;;;;;;;;;0.82;37.44;101006.44;4432515;32;19988;-74
2022/03/13 05:28:02;;;;;;;;;;;;;;;0.89;37.20;101003.59;4447079;32;19991;-73
2022/03/13 05:30:29;;;;;;;;;;;;;;;1.14;36.95;101000.25;4447156;32;20291;-73
2022/03/13 05:32:56;;;;;;;;;;;;;;;1.34;36.38;101005.16;4446613;32;19982;-72
2022/03/13 05:35:23;;;;;;;;;;;;;;;1.60;36.31;100995.91;4436818;32;20329;-71
2022/03/13 05:37:50;;;;;;;;;;;;;;;1.30;37.06;101003.13;4432073;32;20362;-74
2022/03/13 05:40:18;;;;;;;;;;;;;;;1.23;36.88;100998.38;4446817;32;19969;-71
2022/03/13 05:42:46;;;;;;;;;;;;;;;1.69;36.10;101004.22;4419474;32;19989;-74
2022/03/13 05:45:15;;;;;;;;;;;;;;;1.72;37.21;101003.50;4431397;32;20015;-74
2022/03/13 05:47:46;;;;;;;;;;;;;;;1.72;36.22;100998.41;4432796;32;20010;-71
2022/03/13 05:50:13;;;;;;;;;;;;;;;1.91;36.28;101005.69;4419878;32;20026;-71
2022/03/13 05:52:40;;;;;;;;;;;;;;;2.04;35.39;100998.06;4431820;32;20322;-73
2022/03/13 05:55:08;;;;;;;;;;;;;;;2.26;35.35;101006.44;4418441;32;19981;-73
2022/03/13 05:57:35;;;;;;;;;;;;;;;2.39;35.45;101002.16;4446789;32;19985;-75
2022/03/13 06:00:03;;;;;;;;;;;;;;;2.58;35.25;100999.16;4446419;32;19973;-75
2022/03/13 06:02:40;;;;;;;;;;;;;;;2.90;34.46;100998.72;4434166;32;20074;-71
2022/03/13 06:05:08;;;;;;;;;;;;;;;3.07;33.70;100998.16;4446859;32;19981;-72
2022/03/13 06:07:35;;;;;;;;;;;;;;;3.20;33.71;100995.59;4432728;32;20004;-72
2022/03/13 06:10:03;;;;;;;;;;;;;;;3.48;33.29;100992.25;4446127;32;20023;-71
2022/03/13 06:12:33;;;;;;;;;;;;;;;3.12;33.55;101003.56;4446775;32;20008;-71
2022/03/13 06:15:00;;;;;;;;;;;;;;;3.33;32.41;101001.50;4446634;32;20783;-75
2022/03/13 06:17:27;;;;;;;;;;;;;;;3.39;31.37;101000.22;4446751;32;19989;-71
2022/03/13 06:19:55;;;;;;;;;;;;;;;3.37;31.22;101008.56;4432214;32;20083;-73
2022/03/13 06:22:25;;;;;;;;;;;;;;;3.67;30.55;101004.47;4432046;32;19993;-72
2022/03/13 06:24:52;;;;;;;;;;;;;;;3.57;30.62;101008.16;4419991;32;19978;-73
2022/03/13 06:27:21;;;;;;;;;;;;;;;3.62;30.49;101006.78;4431890;32;20473;-73
2022/03/13 06:29:47;;;;;;;;;;;;;;;3.20;32.10;101004.94;4445921;32;20441;-71
2022/03/13 06:32:14;;;;;;;;;;;;;;;3.19;31.89;101015.94;4446140;32;20000;-71
2022/03/13 06:34:41;;;;;;;;;;;;;;;3.55;31.27;101011.44;4432336;32;20375;-72
2022/03/13 06:37:08;;;;;;;;;;;;;;;3.45;31.17;101022.75;4446560;32;19977;-71
2022/03/13 06:39:35;;;;;;;;;;;;;;;3.67;30.76;101020.75;4445675;32;19995;-72
2022/03/13 06:42:02;;;;;;;;;;;;;;;3.83;31.10;101016.56;4431826;32;19992;-74
2022/03/13 06:44:30;;;;;;;;;;;;;;;4.14;31.34;101021.91;4446054;32;19991;-73
2022/03/13 06:46:56;;;;;;;;;;;;;;;4.26;30.45;101030.34;4446014;32;19981;-72
2022/03/13 06:49:23;;;;;;;;;;;;;;;4.45;31.34;101022.06;4445834;32;20647;-75
2022/03/13 06:51:50;;;;;;;;;;;;;;;4.71;29.67;101030.41;4430980;32;20001;-76
2022/03/13 06:54:18;;;;;;;;;;;;;;;5.12;29.16;101031.13;4446278;32;20331;-76
2022/03/13 06:56:48;;;;;;;;;;;;;;;5.45;28.46;101031.25;4445824;32;19982;-73
2022/03/13 06:59:14;;;;;;;;;;;;;;;5.75;27.34;101026.06;4444751;32;19981;-76
2022/03/13 07:01:41;;;;;;;;;;;;;;;5.93;27.34;101021.91;4431939;32;19989;-75
2022/03/13 07:04:08;;;;;;;;;;;;;;;6.47;27.11;101023.03;4446425;32;19981;-71
2022/03/13 07:06:35;;;;;;;;;;;;;;;6.82;26.53;101016.22;4444273;32;20379;-72
2022/03/13 07:09:03;;;;;;;;;;;;;;;7.02;26.35;101016.34;4432167;32;19995;-75
2022/03/13 07:11:32;;;;;;;;;;;;;;;7.15;26.64;101021.31;4446188;32;20041;-77
2022/03/13 07:14:05;;;;;;;;;;;;;;;7.65;26.03;101020.22;4432244;32;19977;-74
2022/03/13 07:16:33;;;;;;;;;;;;;;;7.85;25.03;101023.75;4432377;32;20297;-73
2022/03/13 07:19:00;;;;;;;;;;;;;;;8.24;24.74;101014.34;4431657;32;19969;-73
2022/03/13 07:21:27;;;;;;;;;;;;;;;8.55;24.79;101015.69;4445018;32;20533;-78
2022/03/13 07:23:54;;;;;;;;;;;;;;;8.81;24.01;101009.97;4419280;32;19990;-74
2022/03/13 07:26:21;;;;;;;;;;;;;;;9.22;23.55;101008.22;4445983;32;20325;-71
2022/03/13 07:28:49;;;;;;;;;;;;;;;9.69;22.70;101011.75;4432074;32;19991;-71
2022/03/13 07:31:15;;;;;;;;;;;;;;;10.06;21.96;101012.28;4446707;32;19997;-72
2022/03/13 07:33:42;;;;;;;;;;;;;;;10.42;22.34;101012.75;4431209;32;19982;-72
2022/03/13 07:36:09;;;;;;;;;;;;;;;10.55;21.44;101002.00;4431456;32;20018;-73
2022/03/13 07:38:36;;;;;;;;;;;;;;;10.94;21.29;101006.75;4446213;32;19965;-73
2022/03/13 07:41:03;;;;;;;;;;;;;;;11.00;20.79;101013.88;4445871;32;19984;-73
2022/03/13 07:43:30;;;;;;;;;;;;;;;11.16;20.16;101014.41;4444223;32;19989;-72
2022/03/13 07:45:57;;;;;;;;;;;;;;;11.64;18.97;101014.19;4430441;32;20341;-75
2022/03/13 07:48:24;;;;;;;;;;;;;;;11.73;20.43;101020.50;4431553;32;20059;-72
2022/03/13 07:50:51;;;;;;;;;;;;;;;12.09;19.80;101013.88;4444647;32;19989;-73
2022/03/13 07:53:19;;;;;;;;;;;;;;;12.21;19.63;101018.50;4431358;32;19989;-73
2022/03/13 07:55:46;;;;;;;;;;;;;;;12.06;19.26;101024.16;4445822;32;19986;-74
2022/03/13 07:58:13;;;;;;;;;;;;;;;11.99;19.11;101024.78;4445306;32;19969;-73
2022/03/13 08:00:40;;;;;;;;;;;;;;;12.44;18.13;101024.31;4445693;32;20515;-73
2022/03/13 08:03:07;;;;;;;;;;;;;;;12.55;18.82;101025.50;4447428;32;19991;-71
2022/03/13 08:05:34;;;;;;;;;;;;;;;12.50;17.95;101018.44;4447204;32;19985;-72
2022/03/13 08:08:02;;;;;;;;;;;;;;;12.64;17.99;101014.50;4402862;32;20041;-74
2022/03/13 08:10:29;;;;;;;;;;;;;;;12.95;18.03;101017.88;4409125;32;19996;-71
2022/03/13 08:12:56;;;;;;;;;;;;;;;13.18;16.55;101015.88;4433145;32;20026;-74
2022/03/13 08:15:23;;;;;;;;;;;;;;;13.00;17.55;101011.09;4446205;32;20382;-76
2022/03/13 08:17:50;;;;;;;;;;;;;;;13.36;18.17;101016.31;4420812;32;19973;-74
2022/03/13 08:20:17;;;;;;;;;;;;;;;13.25;16.81;101012.59;4447634;32;19985;-74
2022/03/13 08:22:45;;;;;;;;;;;;;;;13.20;17.11;101020.22;4447302;32;20008;-74
2022/03/13 08:25:16;;;;;;;;;;;;;;;13.46;17.12;101013.13;4430741;32;20000;-76
2022/03/13 08:27:43;;;;;;;;;;;;;;;13.67;17.12;101006.63;4428809;32;20006;-74
2022/03/13 08:30:11;;;;;;;;;;;;;;;13.80;16.51;101008.66;4447627;32;19981;-73
2022/03/13 08:32:40;;;;;;;;;;;;;;;14.30;16.11;101006.22;4447483;32;20019;-74
2022/03/13 08:35:07;;;;;;;;;;;;;;;14.15;15.73;101005.91;4430290;32;20026;-73
2022/03/13 08:37:34;;;;;;;;;;;;;;;14.02;15.68;101003.91;4430952;32;19982;-73
2022/03/13 08:40:03;;;;;;;;;;;;;;;14.40;15.04;100997.72;4442382;32;20031;-73
2022/03/13 08:42:32;;;;;;;;;;;;;;;13.62;16.21;101001.31;4441743;32;19996;-73
2022/03/13 08:44:59;;;;;;;;;;;;;;;14.14;16.51;100998.94;4434993;32;19999;-73
2022/03/13 08:47:27;;;;;;;;;;;;;;;14.74;15.24;100993.19;4447338;32;20323;-73
2022/03/13 08:49:54;;;;;;;;;;;;;;;14.45;16.11;100994.31;4419968;32;20356;-74
2022/03/13 08:52:21;;;;;;;;;;;;;;;14.55;15.74;100996.28;4419996;32;19973;-73
2022/03/13 08:54:48;;;;;;;;;;;;;;;14.88;14.80;100996.87;4373870;32;20710;-74
2022/03/13 08:57:15;;;;;;;;;;;;;;;14.83;14.40;100995.91;4313483;32;20549;-75
2022/03/13 08:59:42;;;;;;;;;;;;;;;14.91;13.36;100995.19;4419173;32;19982;-73
2022/03/13 09:02:09;;;;;;;;;;;;;;;14.48;15.42;100996.97;4447281;32;20007;-74
2022/03/13 09:04:36;;;;;;;;;;;;;;;14.71;15.97;100993.13;4420400;32;20036;-73
2022/03/13 09:07:03;;;;;;;;;;;;;;;13.38;15.38;100992.97;4424287;32;20301;-73
2022/03/13 09:09:30;;;;;;;;;;;;;;;13.53;14.53;100992.41;4417945;32;20005;-72
2022/03/13 09:12:02;;;;;;;;;;;;;;;13.63;14.28;100986.59;4399386;32;20013;-73
2022/03/13 09:14:34;;;;;;;;;;;;;;;13.46;16.05;100992.31;4401086;32;20048;-73
2022/03/13 09:17:01;;;;;;;;;;;;;;;13.32;15.59;100992.81;4401354;32;19974;-73
2022/03/13 09:19:28;;;;;;;;;;;;;;;13.68;15.65;100987.56;4399254;32;19998;-72
2022/03/13 09:21:55;;;;;;;;;;;;;;;13.81;15.16;100984.38;4387732;32;20918;-74
2022/03/13 09:24:22;;;;;;;;;;;;;;;13.35;15.88;100978.16;4390522;32;19977;-75
2022/03/13 09:26:49;;;;;;;;;;;;;;;13.40;15.95;100979.16;4414027;32;19974;-73
2022/03/13 09:29:16;;;;;;;;;;;;;;;13.17;14.78;100973.38;4430405;32;19981;-73
2022/03/13 09:31:43;;;;;;;;;;;;;;;13.04;15.09;100977.38;4416897;32;20035;-73
2022/03/13 09:34:10;;;;;;;;;;;;;;;13.15;15.78;100975.06;4418338;32;20053;-74
2022/03/13 09:36:38;;;;;;;;;;;;;;;13.04;14.41;100977.38;4395422;32;20351;-74
2022/03/13 09:39:05;;;;;;;;;;;;;;;13.44;15.12;100980.09;4402308;32;19986;-74
2022/03/13 09:41:32;;;;;;;;;;;;;;;13.18;15.49;100974.28;4416474;32;19998;-71
2022/03/13 09:43:59;;;;;;;;;;;;;;;13.51;16.12;100973.31;4424507;32;20000;-70
2022/03/13 09:46:25;;;;;;;;;;;;;;;13.70;14.32;100975.47;4397265;32;20009;-71
2022/03/13 09:48:54;;;;;;;;;;;;;;;14.03;12.70;100979.63;4430066;32;19989;-71
2022/03/13 09:51:21;;;;;;;;;;;;;;;13.68;15.40;100972.81;4418205;32;20016;-72
2022/03/13 09:53:49;;;;;;;;;;;;;;;13.21;15.98;100969.16;4416585;32;19990;-71
2022/03/13 09:56:16;;;;;;;;;;;;;;;13.28;15.70;100963.28;4417558;32;20023;-71
2022/03/13 09:58:44;;;;;;;;;;;;;;;13.54;15.76;100947.38;4410927;32;19993;-70
2022/03/13 10:01:11;;;;;;;;;;;;;;;13.24;17.83;100945.78;4446016;32;20314;-71
2022/03/13 10:03:39;;;;;;;;;;;;;;;13.21;16.16;100953.53;4446402;32;20037;-71
2022/03/13 10:06:06;;;;;;;;;;;;;;;12.59;15.03;100961.53;4125782;32;10001170;-72
2022/03/13 10:08:34;;;;;;;;;;;;;;;13.59;15.25;100950.94;4433130;32;20280;-73
2022/03/13 10:11:04;;;;;;;;;;;;;;;13.95;16.22;100951.72;4419712;32;19981;-74
2022/03/13 10:13:35;;;;;;;;;;;;;;;13.51;17.58;100947.31;4446955;32;20042;-73
2022/03/13 10:16:03;;;;;;;;;;;;;;;13.61;14.18;100944.03;4446765;32;20326;-73
2022/03/13 10:18:30;;;;;;;;;;;;;;;13.40;15.11;100950.56;4432432;32;19974;-73
2022/03/13 10:20:59;;;;;;;;;;;;;;;13.57;14.69;100947.44;4125866;32;10010991;-74
2022/03/13 10:23:27;;;;;;;;;;;;;;;13.25;15.82;100950.19;4434437;32;19985;-72
2022/03/13 10:25:53;;;;;;;;;;;;;;;13.22;14.93;100944.88;4429883;32;20027;-73
2022/03/13 10:28:28;;;;;;;;;;;;;;;12.23;15.43;100940.69;4446462;32;20024;-73
2022/03/13 10:30:58;;;;;;;;;;;;;;;13.01;16.16;100946.13;4432724;32;19984;-74
2022/03/13 10:33:45;;;;;;;;;;;;;;;13.32;16.15;100941.69;4446682;32;19981;-72
2022/03/13 10:36:16;;;;;;;;;;;;;;;13.71;15.38;100935.59;4446480;32;19985;-73
2022/03/13 10:38:46;;;;;;;;;;;;;;;13.49;16.29;100935.13;4432658;32;19989;-74
2022/03/13 10:41:13;;;;;;;;;;;;;;;13.22;15.28;100940.56;4431523;32;20471;-72
2022/03/13 10:43:55;;;;;;;;;;;;;;;13.06;15.24;100937.59;4443570;32;19989;-73
2022/03/13 10:46:26;;;;;;;;;;;;;;;12.98;15.76;100939.97;4445931;32;19993;-72
2022/03/13 10:48:54;;;;;;;;;;;;;;;13.15;15.73;100937.81;4431538;32;19994;-72
2022/03/13 10:51:36;;;;;;;;;;;;;;;13.57;16.22;100929.22;4432722;32;19973;-73
2022/03/13 10:54:04;;;;;;;;;;;;;;;13.93;14.63;100929.09;4446516;32;19989;-72
2022/03/13 10:56:31;;;;;;;;;;;;;;;13.81;15.13;100927.12;4431949;32;20470;-72
2022/03/13 10:58:59;;;;;;;;;;;;;;;13.62;15.53;100930.19;4431690;32;20749;-72
2022/03/13 11:01:27;;;;;;;;;;;;;;;14.14;14.58;100918.22;4445903;32;19984;-72
2022/03/13 11:03:55;;;;;;;;;;;;;;;14.42;14.30;100911.78;4446391;32;19993;-73
2022/03/13 11:06:22;;;;;;;;;;;;;;;14.46;14.82;100912.72;4445927;32;19989;-73
2022/03/13 11:08:52;;;;;;;;;;;;;;;14.01;16.21;100918.81;4431716;32;19989;-73
2022/03/13 11:11:19;;;;;;;;;;;;;;;13.75;16.12;100913.09;4444139;32;20030;-72
2022/03/13 11:13:54;;;;;;;;;;;;;;;13.94;15.49;100913.53;4419090;32;20879;-73
2022/03/13 11:16:22;;;;;;;;;;;;;;;13.92;13.85;100910.00;4432524;32;20329;-73
2022/03/13 11:18:51;;;;;;;;;;;;;;;13.95;14.25;100903.97;4431085;32;19996;-73
2022/03/13 11:21:22;;;;;;;;;;;;;;;13.89;14.07;100915.16;4431601;32;19976;-74
2022/03/13 11:23:49;;;;;;;;;;;;;;;13.71;14.63;100899.16;4419603;32;19993;-73
2022/03/13 11:26:17;;;;;;;;;;;;;;;13.83;15.00;100896.81;4446412;32;20046;-73
2022/03/13 11:28:44;;;;;;;;;;;;;;;14.07;14.00;100903.31;4446367;32;19985;-74
2022/03/13 11:31:30;;;;;;;;;;;;;;;14.48;13.92;100903.19;4432468;32;20011;-74
2022/03/13 11:34:12;;;;;;;;;;;;;;;14.93;13.76;100904.81;4432161;32;20039;-73
2022/03/13 11:36:41;;;;;;;;;;;;;;;14.63;14.58;100896.56;4447021;32;19993;-73
2022/03/13 11:39:09;;;;;;;;;;;;;;;14.42;15.06;100891.84;4421609;32;19989;-73
2022/03/13 11:41:45;;;;;;;;;;;;;;;13.71;14.46;100883.53;4433728;32;19974;-73
2022/03/13 11:44:18;;;;;;;;;;;;;;;13.40;16.40;100882.94;4447864;32;19986;-74
2022/03/13 11:46:46;;;;;;;;;;;;;;;13.86;14.37;100883.84;4444713;32;19973;-74
2022/03/13 11:49:31;;;;;;;;;;;;;;;13.61;15.31;100887.69;4447952;32;19985;-73
2022/03/13 11:52:10;;;;;;;;;;;;;;;13.84;13.69;100879.47;4447397;32;20033;-73
2022/03/13 11:54:53;;;;;;;;;;;;;;;13.52;16.92;100878.81;4420876;32;19993;-73
2022/03/13 11:57:20;;;;;;;;;;;;;;;13.38;16.05;100869.00;4447709;32;19988;-73
2022/03/13 12:00:11;;;;;;;;;;;;;;;13.77;15.12;100873.25;4446720;32;20345;-72
2022/03/13 12:02:43;;;;;;;;;;;;;;;14.26;14.78;100866.34;4434289;32;20333;-72
2022/03/13 12:05:28;;;;;;;;;;;;;;;14.32;13.77;100863.84;4447251;32;19993;-73
2022/03/13 12:08:12;;;;;;;;;;;;;;;14.47;13.70;100858.03;4447532;32;20004;-72
2022/03/13 12:10:47;;;;;;;;;;;;;;;14.08;13.76;100845.22;4445991;32;19993;-73
2022/03/13 12:13:13;;;;;;;;;;;;;;;14.29;13.66;100855.13;4433562;32;19976;-72
2022/03/13 12:15:41;;;;;;;;;;;;;;;14.43;13.37;100846.69;4447707;32;20094;-72
2022/03/13 12:18:17;;;;;;;;;;;;;;;14.38;13.50;100842.25;4446773;32;20358;-72
2022/03/13 12:20:45;;;;;;;;;;;;;;;14.52;13.30;100845.12;4432959;32;19995;-73
2022/03/13 12:23:31;;;;;;;;;;;;;;;14.17;13.42;100842.78;4432568;32;19977;-74
2022/03/13 12:26:17;;;;;;;;;;;;;;;13.99;14.29;100837.22;4445384;32;20008;-74
2022/03/13 12:28:44;;;;;;;;;;;;;;;14.00;14.46;100834.66;4432457;32;19991;-73
2022/03/13 12:31:11;;;;;;;;;;;;;;;13.63;14.20;100830.50;4432911;32;20387;-73
2022/03/13 12:33:43;;;;;;;;;;;;;;;14.10;13.27;100825.28;4419738;32;20025;-74
2022/03/13 12:36:13;;;;;;;;;;;;;;;13.94;15.74;100829.31;4438031;32;20031;-73
2022/03/13 12:38:43;;;;;;;;;;;;;;;14.49;14.35;100824.22;4444788;32;19989;-73
2022/03/13 12:41:11;;;;;;;;;;;;;;;14.97;13.47;100825.81;4432787;32;19996;-73
2022/03/13 12:43:56;;;;;;;;;;;;;;;14.51;13.25;100822.53;4420882;32;20294;-73
2022/03/13 12:46:24;;;;;;;;;;;;;;;14.44;12.79;100826.72;4446167;32;19985;-74
2022/03/13 12:49:02;;;;;;;;;;;;;;;14.25;13.27;100829.87;4432443;32;20070;-74